sensor_id;sensor_type;location;lat;lon;timestamp;pressure;altitude;pressure_sealevel;temperature;humidity
60920;BME280;59039;52.108;19.942;2023-04-09T00:01:04;101407.45;;;9.02;77.43
60920;BME280;59039;52.108;19.942;2023-04-09T00:03:29;101403.80;;;9.03;77.80
60920;BME280;59039;52.108;19.942;2023-04-09T00:06:03;101403.55;;;9.04;77.64
60920;BME280;59039;52.108;19.942;2023-04-09T00:08:28;101399.92;;;9.04;77.82
60920;BME280;59039;52.108;19.942;2023-04-09T00:10:57;101392.61;;;9.05;77.77
60920;BME280;59039;52.108;19.942;2023-04-09T00:13:22;101394.87;;;9.06;77.86
60920;BME280;59039;52.108;19.942;2023-04-09T00:15:48;101393.38;;;9.07;77.90
60920;BME280;59039;52.108;19.942;2023-04-09T00:18:16;101391.67;;;9.07;78.31
60920;BME280;59039;52.108;19.942;2023-04-09T00:20:45;101388.05;;;9.07;78.29
60920;BME280;59039;52.108;19.942;2023-04-09T00:23:27;101387.13;;;9.07;78.12
60920;BME280;59039;52.108;19.942;2023-04-09T00:25:56;101383.48;;;9.08;78.08
60920;BME280;59039;52.108;19.942;2023-04-09T00:31:06;101378.25;;;9.03;78.35
60920;BME280;59039;52.108;19.942;2023-04-09T00:36:14;101379.56;;;9.01;78.51
60920;BME280;59039;52.108;19.942;2023-04-09T00:38:47;101379.73;;;9.01;78.88
60920;BME280;59039;52.108;19.942;2023-04-09T00:41:14;101375.77;;;9.00;78.66
60920;BME280;59039;52.108;19.942;2023-04-09T00:43:41;101377.08;;;9.00;78.59
60920;BME280;59039;52.108;19.942;2023-04-09T00:46:07;101378.33;;;9.00;78.62
60920;BME280;59039;52.108;19.942;2023-04-09T00:48:55;101378.48;;;9.00;78.54
60920;BME280;59039;52.108;19.942;2023-04-09T00:51:23;101375.15;;;9.02;78.24
60920;BME280;59039;52.108;19.942;2023-04-09T00:53:57;101372.00;;;9.03;78.23
60920;BME280;59039;52.108;19.942;2023-04-09T00:56:34;101372.10;;;9.03;78.29
60920;BME280;59039;52.108;19.942;2023-04-09T00:59:02;101375.27;;;9.04;78.10
60920;BME280;59039;52.108;19.942;2023-04-09T01:01:34;101375.35;;;9.06;77.80
60920;BME280;59039;52.108;19.942;2023-04-09T01:04:06;101380.20;;;9.06;78.24
60920;BME280;59039;52.108;19.942;2023-04-09T01:06:40;101384.92;;;9.06;78.09
60920;BME280;59039;52.108;19.942;2023-04-09T01:12:31;101376.80;;;9.06;78.04
60920;BME280;59039;52.108;19.942;2023-04-09T01:15:09;101376.30;;;9.05;78.51
60920;BME280;59039;52.108;19.942;2023-04-09T01:17:52;101374.39;;;9.04;78.61
60920;BME280;59039;52.108;19.942;2023-04-09T01:20:51;101373.88;;;9.04;78.56
60920;BME280;59039;52.108;19.942;2023-04-09T01:26:44;101368.25;;;9.04;78.19
60920;BME280;59039;52.108;19.942;2023-04-09T01:29:24;101366.88;;;9.03;78.12
60920;BME280;59039;52.108;19.942;2023-04-09T01:31:50;101367.66;;;9.03;78.04
60920;BME280;59039;52.108;19.942;2023-04-09T01:34:42;101369.27;;;9.03;78.20
60920;BME280;59039;52.108;19.942;2023-04-09T01:37:11;101375.46;;;9.02;78.78
60920;BME280;59039;52.108;19.942;2023-04-09T01:42:21;101378.55;;;9.02;78.44
60920;BME280;59039;52.108;19.942;2023-04-09T01:44:51;101377.14;;;9.01;78.40
60920;BME280;59039;52.108;19.942;2023-04-09T01:47:17;101373.11;;;9.00;78.49
60920;BME280;59039;52.108;19.942;2023-04-09T01:49:42;101374.41;;;8.99;78.02
60920;BME280;59039;52.108;19.942;2023-04-09T01:52:14;101372.96;;;8.99;78.38
60920;BME280;59039;52.108;19.942;2023-04-09T01:54:43;101370.16;;;8.98;78.88
60920;BME280;59039;52.108;19.942;2023-04-09T01:57:13;101372.23;;;8.97;78.67
60920;BME280;59039;52.108;19.942;2023-04-09T02:00:02;101366.30;;;8.97;78.56
60920;BME280;59039;52.108;19.942;2023-04-09T02:02:43;101365.90;;;8.95;79.10
60920;BME280;59039;52.108;19.942;2023-04-09T02:05:26;101362.20;;;8.91;78.98
60920;BME280;59039;52.108;19.942;2023-04-09T02:08:00;101360.30;;;8.90;79.03
60920;BME280;59039;52.108;19.942;2023-04-09T02:10:32;101361.65;;;8.89;79.20
60920;BME280;59039;52.108;19.942;2023-04-09T02:12:59;101360.59;;;8.87;79.25
60920;BME280;59039;52.108;19.942;2023-04-09T02:15:26;101357.73;;;8.84;79.66
60920;BME280;59039;52.108;19.942;2023-04-09T02:17:55;101357.45;;;8.83;79.20
60920;BME280;59039;52.108;19.942;2023-04-09T02:20:23;101358.55;;;8.83;78.76
60920;BME280;59039;52.108;19.942;2023-04-09T02:23:09;101352.39;;;8.83;78.43
60920;BME280;59039;52.108;19.942;2023-04-09T02:25:39;101354.02;;;8.83;78.25
60920;BME280;59039;52.108;19.942;2023-04-09T02:28:19;101353.11;;;8.83;78.52
60920;BME280;59039;52.108;19.942;2023-04-09T02:33:26;101353.08;;;8.81;78.51
60920;BME280;59039;52.108;19.942;2023-04-09T02:36:04;101355.89;;;8.80;78.48
60920;BME280;59039;52.108;19.942;2023-04-09T02:38:30;101361.98;;;8.78;78.56
60920;BME280;59039;52.108;19.942;2023-04-09T02:40:55;101365.85;;;8.77;78.47
60920;BME280;59039;52.108;19.942;2023-04-09T02:43:23;101367.68;;;8.76;78.43
60920;BME280;59039;52.108;19.942;2023-04-09T02:46:02;101367.00;;;8.76;78.50
60920;BME280;59039;52.108;19.942;2023-04-09T02:48:37;101370.98;;;8.76;78.92
60920;BME280;59039;52.108;19.942;2023-04-09T02:51:06;101376.95;;;8.76;79.04
60920;BME280;59039;52.108;19.942;2023-04-09T02:53:31;101378.26;;;8.75;78.76
60920;BME280;59039;52.108;19.942;2023-04-09T02:55:57;101376.41;;;8.76;78.84
60920;BME280;59039;52.108;19.942;2023-04-09T02:58:22;101375.33;;;8.76;79.21
60920;BME280;59039;52.108;19.942;2023-04-09T03:00:52;101376.77;;;8.76;78.79
60920;BME280;59039;52.108;19.942;2023-04-09T03:03:17;101376.92;;;8.76;78.91
60920;BME280;59039;52.108;19.942;2023-04-09T03:05:45;101374.42;;;8.76;78.94
60920;BME280;59039;52.108;19.942;2023-04-09T03:10:49;101379.45;;;8.76;79.29
60920;BME280;59039;52.108;19.942;2023-04-09T03:13:15;101385.05;;;8.76;79.60
60920;BME280;59039;52.108;19.942;2023-04-09T03:15:49;101385.08;;;8.76;79.23
60920;BME280;59039;52.108;19.942;2023-04-09T03:18:28;101380.06;;;8.75;79.26
60920;BME280;59039;52.108;19.942;2023-04-09T03:20:53;101380.98;;;8.75;79.70
60920;BME280;59039;52.108;19.942;2023-04-09T03:23:21;101382.61;;;8.75;79.75
60920;BME280;59039;52.108;19.942;2023-04-09T03:25:47;101382.22;;;8.75;79.70
60920;BME280;59039;52.108;19.942;2023-04-09T03:28:32;101382.74;;;8.76;79.36
60920;BME280;59039;52.108;19.942;2023-04-09T03:31:00;101383.85;;;8.75;79.61
60920;BME280;59039;52.108;19.942;2023-04-09T03:33:28;101379.54;;;8.75;79.46
60920;BME280;59039;52.108;19.942;2023-04-09T03:38:41;101383.78;;;8.74;79.87
60920;BME280;59039;52.108;19.942;2023-04-09T03:41:06;101381.44;;;8.74;79.61
60920;BME280;59039;52.108;19.942;2023-04-09T03:43:32;101380.00;;;8.74;79.85
60920;BME280;59039;52.108;19.942;2023-04-09T03:48:35;101382.23;;;8.73;80.44
60920;BME280;59039;52.108;19.942;2023-04-09T03:51:01;101379.61;;;8.72;80.36
60920;BME280;59039;52.108;19.942;2023-04-09T03:53:26;101378.74;;;8.71;80.14
60920;BME280;59039;52.108;19.942;2023-04-09T03:55:55;101376.02;;;8.72;80.58
60920;BME280;59039;52.108;19.942;2023-04-09T03:58:41;101377.56;;;8.71;80.51
60920;BME280;59039;52.108;19.942;2023-04-09T04:01:16;101377.70;;;8.69;80.66
60920;BME280;59039;52.108;19.942;2023-04-09T04:03:51;101370.48;;;8.69;80.60
60920;BME280;59039;52.108;19.942;2023-04-09T04:06:19;101373.19;;;8.69;80.48
60920;BME280;59039;52.108;19.942;2023-04-09T04:08:48;101377.65;;;8.69;80.22
60920;BME280;59039;52.108;19.942;2023-04-09T04:11:16;101381.52;;;8.70;80.28
60920;BME280;59039;52.108;19.942;2023-04-09T04:13:44;101380.56;;;8.71;80.53
60920;BME280;59039;52.108;19.942;2023-04-09T04:16:10;101375.02;;;8.71;80.76
60920;BME280;59039;52.108;19.942;2023-04-09T04:18:37;101372.77;;;8.70;80.53
60920;BME280;59039;52.108;19.942;2023-04-09T04:21:21;101367.30;;;8.68;80.44
60920;BME280;59039;52.108;19.942;2023-04-09T04:23:47;101366.85;;;8.64;80.87
60920;BME280;59039;52.108;19.942;2023-04-09T04:26:12;101363.61;;;8.59;80.67
60920;BME280;59039;52.108;19.942;2023-04-09T04:28:40;101361.05;;;8.57;80.91
60920;BME280;59039;52.108;19.942;2023-04-09T04:31:14;101358.84;;;8.55;81.06
60920;BME280;59039;52.108;19.942;2023-04-09T04:34:01;101357.16;;;8.54;80.99
60920;BME280;59039;52.108;19.942;2023-04-09T04:39:13;101361.14;;;8.51;81.09
60920;BME280;59039;52.108;19.942;2023-04-09T04:42:01;101357.48;;;8.52;80.83
60920;BME280;59039;52.108;19.942;2023-04-09T04:44:32;101354.85;;;8.54;81.01
60920;BME280;59039;52.108;19.942;2023-04-09T04:47:00;101360.73;;;8.55;80.83
60920;BME280;59039;52.108;19.942;2023-04-09T04:49:42;101361.00;;;8.55;80.79
60920;BME280;59039;52.108;19.942;2023-04-09T04:52:07;101363.48;;;8.56;80.97
60920;BME280;59039;52.108;19.942;2023-04-09T04:54:40;101364.11;;;8.57;80.72
60920;BME280;59039;52.108;19.942;2023-04-09T04:57:09;101364.23;;;8.59;80.71
60920;BME280;59039;52.108;19.942;2023-04-09T04:59:38;101365.89;;;8.61;81.00
60920;BME280;59039;52.108;19.942;2023-04-09T05:02:07;101364.98;;;8.61;80.93
60920;BME280;59039;52.108;19.942;2023-04-09T05:04:36;101364.33;;;8.60;81.20
60920;BME280;59039;52.108;19.942;2023-04-09T05:07:04;101365.08;;;8.59;81.22
60920;BME280;59039;52.108;19.942;2023-04-09T05:09:30;101366.86;;;8.60;80.95
60920;BME280;59039;52.108;19.942;2023-04-09T05:11:55;101361.27;;;8.60;80.97
60920;BME280;59039;52.108;19.942;2023-04-09T05:14:28;101367.33;;;8.61;80.76
60920;BME280;59039;52.108;19.942;2023-04-09T05:16:56;101368.14;;;8.62;81.21
60920;BME280;59039;52.108;19.942;2023-04-09T05:19:21;101370.41;;;8.63;81.15
60920;BME280;59039;52.108;19.942;2023-04-09T05:21:46;101373.98;;;8.63;81.12
60920;BME280;59039;52.108;19.942;2023-04-09T05:24:12;101376.80;;;8.64;81.12
60920;BME280;59039;52.108;19.942;2023-04-09T05:26:39;101376.95;;;8.65;81.25
60920;BME280;59039;52.108;19.942;2023-04-09T05:29:05;101380.54;;;8.65;81.33
60920;BME280;59039;52.108;19.942;2023-04-09T05:31:50;101381.61;;;8.67;81.18
60920;BME280;59039;52.108;19.942;2023-04-09T05:34:31;101378.33;;;8.68;81.46
60920;BME280;59039;52.108;19.942;2023-04-09T05:37:01;101374.96;;;8.69;81.77
60920;BME280;59039;52.108;19.942;2023-04-09T05:39:27;101373.63;;;8.72;81.71
60920;BME280;59039;52.108;19.942;2023-04-09T05:41:55;101374.80;;;8.81;81.82
60920;BME280;59039;52.108;19.942;2023-04-09T05:44:20;101378.61;;;8.94;81.97
60920;BME280;59039;52.108;19.942;2023-04-09T05:46:46;101379.44;;;9.11;82.18
60920;BME280;59039;52.108;19.942;2023-04-09T05:49:11;101383.29;;;9.31;81.81
60920;BME280;59039;52.108;19.942;2023-04-09T05:51:37;101386.52;;;9.53;81.33
60920;BME280;59039;52.108;19.942;2023-04-09T05:54:03;101384.56;;;9.75;80.50
60920;BME280;59039;52.108;19.942;2023-04-09T05:56:31;101383.48;;;9.97;80.02
60920;BME280;59039;52.108;19.942;2023-04-09T05:58:56;101384.08;;;10.21;79.20
60920;BME280;59039;52.108;19.942;2023-04-09T06:01:24;101386.68;;;10.44;79.02
60920;BME280;59039;52.108;19.942;2023-04-09T06:03:54;101392.02;;;10.66;78.04
60920;BME280;59039;52.108;19.942;2023-04-09T06:06:20;101394.42;;;10.93;77.62
60920;BME280;59039;52.108;19.942;2023-04-09T06:08:48;101392.48;;;11.15;75.76
60920;BME280;59039;52.108;19.942;2023-04-09T06:11:14;101390.91;;;11.29;74.84
60920;BME280;59039;52.108;19.942;2023-04-09T06:13:45;101386.40;;;11.39;75.19
60920;BME280;59039;52.108;19.942;2023-04-09T06:16:10;101386.92;;;11.47;73.88
60920;BME280;59039;52.108;19.942;2023-04-09T06:18:41;101390.91;;;11.56;73.70
60920;BME280;59039;52.108;19.942;2023-04-09T06:21:07;101391.19;;;11.64;73.52
60920;BME280;59039;52.108;19.942;2023-04-09T06:23:35;101388.77;;;11.74;72.71
60920;BME280;59039;52.108;19.942;2023-04-09T06:26:00;101392.27;;;11.77;72.82
60920;BME280;59039;52.108;19.942;2023-04-09T06:28:29;101393.60;;;11.78;72.91
60920;BME280;59039;52.108;19.942;2023-04-09T06:30:55;101400.41;;;11.77;72.07
60920;BME280;59039;52.108;19.942;2023-04-09T06:33:23;101401.09;;;11.76;72.74
60920;BME280;59039;52.108;19.942;2023-04-09T06:36:01;101399.20;;;11.75;72.35
60920;BME280;59039;52.108;19.942;2023-04-09T06:38:29;101402.39;;;11.74;72.20
60920;BME280;59039;52.108;19.942;2023-04-09T06:40:55;101401.23;;;11.70;72.28
60920;BME280;59039;52.108;19.942;2023-04-09T06:43:20;101402.48;;;11.64;72.65
60920;BME280;59039;52.108;19.942;2023-04-09T06:45:45;101409.50;;;11.61;72.90
60920;BME280;59039;52.108;19.942;2023-04-09T06:48:13;101410.61;;;11.59;72.92
60920;BME280;59039;52.108;19.942;2023-04-09T06:50:39;101411.27;;;11.58;73.05
60920;BME280;59039;52.108;19.942;2023-04-09T06:53:07;101416.28;;;11.56;72.87
60920;BME280;59039;52.108;19.942;2023-04-09T06:55:36;101415.19;;;11.54;72.86
60920;BME280;59039;52.108;19.942;2023-04-09T06:58:12;101418.25;;;11.53;72.60
60920;BME280;59039;52.108;19.942;2023-04-09T07:00:37;101415.73;;;11.50;72.35
60920;BME280;59039;52.108;19.942;2023-04-09T07:03:03;101419.69;;;11.48;72.73
60920;BME280;59039;52.108;19.942;2023-04-09T07:05:31;101423.09;;;11.47;72.96
60920;BME280;59039;52.108;19.942;2023-04-09T07:08:07;101421.67;;;11.46;73.15
60920;BME280;59039;52.108;19.942;2023-04-09T07:10:32;101421.16;;;11.46;73.37
60920;BME280;59039;52.108;19.942;2023-04-09T07:13:00;101423.94;;;11.47;73.44
60920;BME280;59039;52.108;19.942;2023-04-09T07:15:25;101422.89;;;11.49;72.58
60920;BME280;59039;52.108;19.942;2023-04-09T07:17:51;101422.89;;;11.49;72.76
60920;BME280;59039;52.108;19.942;2023-04-09T07:20:16;101425.80;;;11.49;72.63
60920;BME280;59039;52.108;19.942;2023-04-09T07:22:44;101423.39;;;11.52;72.67
60920;BME280;59039;52.108;19.942;2023-04-09T07:25:30;101423.27;;;11.53;72.51
60920;BME280;59039;52.108;19.942;2023-04-09T07:27:55;101425.15;;;11.55;72.29
60920;BME280;59039;52.108;19.942;2023-04-09T07:30:20;101428.71;;;11.53;71.87
60920;BME280;59039;52.108;19.942;2023-04-09T07:32:46;101425.44;;;11.49;72.69
60920;BME280;59039;52.108;19.942;2023-04-09T07:35:16;101429.65;;;11.48;72.99
60920;BME280;59039;52.108;19.942;2023-04-09T07:37:44;101427.27;;;11.48;72.80
60920;BME280;59039;52.108;19.942;2023-04-09T07:40:12;101428.48;;;11.49;72.63
60920;BME280;59039;52.108;19.942;2023-04-09T07:42:38;101430.33;;;11.51;72.86
60920;BME280;59039;52.108;19.942;2023-04-09T07:45:07;101430.61;;;11.52;72.60
60920;BME280;59039;52.108;19.942;2023-04-09T07:47:58;101431.02;;;11.54;72.67
60920;BME280;59039;52.108;19.942;2023-04-09T07:50:23;101433.27;;;11.55;72.46
60920;BME280;59039;52.108;19.942;2023-04-09T07:53:08;101437.36;;;11.56;72.17
60920;BME280;59039;52.108;19.942;2023-04-09T07:55:37;101435.70;;;11.56;72.62
60920;BME280;59039;52.108;19.942;2023-04-09T07:58:04;101434.22;;;11.56;72.38
60920;BME280;59039;52.108;19.942;2023-04-09T08:00:30;101434.68;;;11.57;72.51
60920;BME280;59039;52.108;19.942;2023-04-09T08:02:55;101436.34;;;11.59;72.70
60920;BME280;59039;52.108;19.942;2023-04-09T08:05:24;101432.23;;;11.59;72.36
60920;BME280;59039;52.108;19.942;2023-04-09T08:07:50;101433.63;;;11.59;72.24
60920;BME280;59039;52.108;19.942;2023-04-09T08:10:18;101432.31;;;11.59;72.17
60920;BME280;59039;52.108;19.942;2023-04-09T08:12:44;101432.86;;;11.59;72.02
60920;BME280;59039;52.108;19.942;2023-04-09T08:15:11;101435.03;;;11.60;71.88
60920;BME280;59039;52.108;19.942;2023-04-09T08:17:39;101435.44;;;11.61;72.06
60920;BME280;59039;52.108;19.942;2023-04-09T08:20:05;101436.37;;;11.63;72.19
60920;BME280;59039;52.108;19.942;2023-04-09T08:22:31;101437.38;;;11.66;72.18
60920;BME280;59039;52.108;19.942;2023-04-09T08:24:57;101434.92;;;11.67;71.81
60920;BME280;59039;52.108;19.942;2023-04-09T08:27:22;101436.84;;;11.67;71.90
60920;BME280;59039;52.108;19.942;2023-04-09T08:29:51;101440.81;;;11.68;72.00
60920;BME280;59039;52.108;19.942;2023-04-09T08:32:19;101438.80;;;11.70;71.85
60920;BME280;59039;52.108;19.942;2023-04-09T08:34:46;101440.84;;;11.71;71.78
60920;BME280;59039;52.108;19.942;2023-04-09T08:37:27;101440.48;;;11.72;71.76
60920;BME280;59039;52.108;19.942;2023-04-09T08:39:55;101438.46;;;11.74;71.34
60920;BME280;59039;52.108;19.942;2023-04-09T08:42:29;101435.48;;;11.77;71.56
60920;BME280;59039;52.108;19.942;2023-04-09T08:45:16;101435.97;;;11.78;71.36
60920;BME280;59039;52.108;19.942;2023-04-09T08:47:47;101432.36;;;11.79;71.05
60920;BME280;59039;52.108;19.942;2023-04-09T08:50:13;101435.55;;;11.82;71.31
60920;BME280;59039;52.108;19.942;2023-04-09T08:52:47;101437.32;;;11.85;71.15
60920;BME280;59039;52.108;19.942;2023-04-09T08:58:13;101440.00;;;11.89;70.92
60920;BME280;59039;52.108;19.942;2023-04-09T09:00:42;101443.57;;;11.93;71.13
60920;BME280;59039;52.108;19.942;2023-04-09T09:03:09;101439.95;;;11.94;71.13
60920;BME280;59039;52.108;19.942;2023-04-09T09:05:41;101439.81;;;11.96;70.66
60920;BME280;59039;52.108;19.942;2023-04-09T09:08:12;101436.80;;;11.97;70.68
60920;BME280;59039;52.108;19.942;2023-04-09T09:10:41;101436.27;;;12.01;70.80
60920;BME280;59039;52.108;19.942;2023-04-09T09:13:33;101438.29;;;12.04;70.43
60920;BME280;59039;52.108;19.942;2023-04-09T09:16:12;101440.85;;;12.08;70.69
60920;BME280;59039;52.108;19.942;2023-04-09T09:18:40;101439.02;;;12.12;70.85
60920;BME280;59039;52.108;19.942;2023-04-09T09:21:13;101440.98;;;12.17;70.96
60920;BME280;59039;52.108;19.942;2023-04-09T09:23:39;101441.56;;;12.20;70.47
60920;BME280;59039;52.108;19.942;2023-04-09T09:26:27;101441.09;;;12.24;70.39
60920;BME280;59039;52.108;19.942;2023-04-09T09:28:56;101440.80;;;12.27;70.49
60920;BME280;59039;52.108;19.942;2023-04-09T09:34:07;101443.83;;;12.31;69.44
60920;BME280;59039;52.108;19.942;2023-04-09T09:36:35;101443.23;;;12.34;69.88
60920;BME280;59039;52.108;19.942;2023-04-09T09:39:20;101444.11;;;12.36;69.66
60920;BME280;59039;52.108;19.942;2023-04-09T09:41:45;101444.55;;;12.39;69.19
60920;BME280;59039;52.108;19.942;2023-04-09T09:44:30;101445.36;;;12.43;68.84
60920;BME280;59039;52.108;19.942;2023-04-09T09:46:56;101444.53;;;12.46;69.26
60920;BME280;59039;52.108;19.942;2023-04-09T09:49:22;101442.19;;;12.49;69.47
60920;BME280;59039;52.108;19.942;2023-04-09T09:51:57;101444.63;;;12.52;69.20
60920;BME280;59039;52.108;19.942;2023-04-09T09:54:24;101440.09;;;12.56;69.21
60920;BME280;59039;52.108;19.942;2023-04-09T09:57:14;101438.89;;;12.60;69.69
60920;BME280;59039;52.108;19.942;2023-04-09T10:00:24;101440.44;;;12.66;69.42
60920;BME280;59039;52.108;19.942;2023-04-09T10:03:19;101438.69;;;12.71;68.48
60920;BME280;59039;52.108;19.942;2023-04-09T10:06:17;101441.34;;;12.76;68.25
60920;BME280;59039;52.108;19.942;2023-04-09T10:08:42;101441.30;;;12.80;68.02
60920;BME280;59039;52.108;19.942;2023-04-09T10:11:08;101439.72;;;12.83;68.13
60920;BME280;59039;52.108;19.942;2023-04-09T10:13:38;101436.87;;;12.87;67.76
60920;BME280;59039;52.108;19.942;2023-04-09T10:16:07;101434.45;;;12.89;68.03
60920;BME280;59039;52.108;19.942;2023-04-09T10:18:38;101437.52;;;12.93;67.97
60920;BME280;59039;52.108;19.942;2023-04-09T10:24:18;101439.54;;;12.97;67.75
60920;BME280;59039;52.108;19.942;2023-04-09T10:26:53;101445.42;;;12.98;67.09
60920;BME280;59039;52.108;19.942;2023-04-09T10:29:26;101446.63;;;12.99;66.77
60920;BME280;59039;52.108;19.942;2023-04-09T10:32:03;101442.14;;;12.98;66.29
60920;BME280;59039;52.108;19.942;2023-04-09T10:34:31;101441.08;;;12.98;66.79
60920;BME280;59039;52.108;19.942;2023-04-09T10:36:58;101440.24;;;12.99;67.41
60920;BME280;59039;52.108;19.942;2023-04-09T10:39:31;101442.24;;;13.01;67.27
60920;BME280;59039;52.108;19.942;2023-04-09T10:42:07;101440.96;;;13.01;66.76
60920;BME280;59039;52.108;19.942;2023-04-09T10:44:38;101442.89;;;13.02;67.48
60920;BME280;59039;52.108;19.942;2023-04-09T10:47:04;101444.17;;;13.04;67.50
60920;BME280;59039;52.108;19.942;2023-04-09T10:49:37;101444.49;;;13.04;67.15
60920;BME280;59039;52.108;19.942;2023-04-09T10:52:11;101445.73;;;13.03;66.32
60920;BME280;59039;52.108;19.942;2023-04-09T10:54:40;101444.75;;;13.02;66.80
60920;BME280;59039;52.108;19.942;2023-04-09T10:57:10;101445.00;;;13.01;66.58
60920;BME280;59039;52.108;19.942;2023-04-09T10:59:49;101447.36;;;13.01;66.90
60920;BME280;59039;52.108;19.942;2023-04-09T11:05:31;101440.09;;;13.01;67.04
60920;BME280;59039;52.108;19.942;2023-04-09T11:08:16;101440.43;;;13.01;67.61
60920;BME280;59039;52.108;19.942;2023-04-09T11:10:43;101439.06;;;13.02;67.36
60920;BME280;59039;52.108;19.942;2023-04-09T11:13:12;101440.92;;;13.03;67.43
60920;BME280;59039;52.108;19.942;2023-04-09T11:15:47;101440.95;;;13.05;67.92
60920;BME280;59039;52.108;19.942;2023-04-09T11:18:25;101438.08;;;13.07;67.70
60920;BME280;59039;52.108;19.942;2023-04-09T11:20:57;101438.91;;;13.08;67.74
60920;BME280;59039;52.108;19.942;2023-04-09T11:23:23;101436.90;;;13.09;67.60
60920;BME280;59039;52.108;19.942;2023-04-09T11:25:49;101437.27;;;13.11;67.23
60920;BME280;59039;52.108;19.942;2023-04-09T11:28:28;101439.10;;;13.13;67.48
60920;BME280;59039;52.108;19.942;2023-04-09T11:30:56;101438.75;;;13.14;67.20
60920;BME280;59039;52.108;19.942;2023-04-09T11:33:22;101438.94;;;13.17;67.31
60920;BME280;59039;52.108;19.942;2023-04-09T11:35:50;101440.53;;;13.19;66.96
60920;BME280;59039;52.108;19.942;2023-04-09T11:38:26;101440.66;;;13.21;67.49
60920;BME280;59039;52.108;19.942;2023-04-09T11:40:56;101444.16;;;13.25;67.35
60920;BME280;59039;52.108;19.942;2023-04-09T11:43:23;101441.52;;;13.28;66.50
60920;BME280;59039;52.108;19.942;2023-04-09T11:45:51;101443.61;;;13.31;66.22
60920;BME280;59039;52.108;19.942;2023-04-09T11:48:19;101440.29;;;13.35;66.65
60920;BME280;59039;52.108;19.942;2023-04-09T11:50:48;101439.73;;;13.39;66.23
60920;BME280;59039;52.108;19.942;2023-04-09T11:53:22;101439.95;;;13.41;65.10
60920;BME280;59039;52.108;19.942;2023-04-09T11:55:58;101441.12;;;13.42;65.31
60920;BME280;59039;52.108;19.942;2023-04-09T11:58:27;101440.33;;;13.44;65.46
60920;BME280;59039;52.108;19.942;2023-04-09T12:00:53;101438.77;;;13.47;65.21
60920;BME280;59039;52.108;19.942;2023-04-09T12:03:39;101440.82;;;13.49;64.88
60920;BME280;59039;52.108;19.942;2023-04-09T12:06:12;101435.98;;;13.51;64.81
60920;BME280;59039;52.108;19.942;2023-04-09T12:08:38;101438.41;;;13.54;65.62
60920;BME280;59039;52.108;19.942;2023-04-09T12:14:00;101428.74;;;13.58;64.15
60920;BME280;59039;52.108;19.942;2023-04-09T12:16:36;101428.04;;;13.60;63.40
60920;BME280;59039;52.108;19.942;2023-04-09T12:19:30;101427.59;;;13.61;64.09
60920;BME280;59039;52.108;19.942;2023-04-09T12:22:07;101427.63;;;13.61;63.09
60920;BME280;59039;52.108;19.942;2023-04-09T12:24:53;101422.10;;;13.60;62.69
60920;BME280;59039;52.108;19.942;2023-04-09T12:27:21;101424.81;;;13.58;62.65
60920;BME280;59039;52.108;19.942;2023-04-09T12:29:49;101425.77;;;13.57;62.51
60920;BME280;59039;52.108;19.942;2023-04-09T12:32:15;101422.77;;;13.56;61.99
60920;BME280;59039;52.108;19.942;2023-04-09T12:34:40;101425.02;;;13.54;62.42
60920;BME280;59039;52.108;19.942;2023-04-09T12:37:08;101422.70;;;13.51;62.43
60920;BME280;59039;52.108;19.942;2023-04-09T12:39:34;101422.71;;;13.49;62.72
60920;BME280;59039;52.108;19.942;2023-04-09T12:41:59;101420.55;;;13.49;63.29
60920;BME280;59039;52.108;19.942;2023-04-09T12:44:38;101419.26;;;13.49;63.18
60920;BME280;59039;52.108;19.942;2023-04-09T12:47:03;101418.02;;;13.49;62.51
60920;BME280;59039;52.108;19.942;2023-04-09T12:49:29;101416.08;;;13.48;62.94
60920;BME280;59039;52.108;19.942;2023-04-09T12:51:59;101419.07;;;13.48;62.95
60920;BME280;59039;52.108;19.942;2023-04-09T12:54:25;101413.95;;;13.48;62.63
60920;BME280;59039;52.108;19.942;2023-04-09T12:56:53;101412.89;;;13.47;62.57
60920;BME280;59039;52.108;19.942;2023-04-09T12:59:22;101411.12;;;13.49;63.07
60920;BME280;59039;52.108;19.942;2023-04-09T13:01:47;101409.73;;;13.50;62.13
60920;BME280;59039;52.108;19.942;2023-04-09T13:04:33;101409.98;;;13.49;62.24
60920;BME280;59039;52.108;19.942;2023-04-09T13:07:06;101410.00;;;13.51;62.23
60920;BME280;59039;52.108;19.942;2023-04-09T13:10:12;101406.04;;;13.51;61.07
60920;BME280;59039;52.108;19.942;2023-04-09T13:12:39;101407.55;;;13.50;61.13
60920;BME280;59039;52.108;19.942;2023-04-09T13:15:11;101402.20;;;13.50;62.10
60920;BME280;59039;52.108;19.942;2023-04-09T13:18:00;101400.05;;;13.48;60.52
60920;BME280;59039;52.108;19.942;2023-04-09T13:20:28;101403.90;;;13.46;60.58
60920;BME280;59039;52.108;19.942;2023-04-09T13:23:13;101398.77;;;13.45;60.66
60920;BME280;59039;52.108;19.942;2023-04-09T13:28:17;101397.90;;;13.43;61.16
60920;BME280;59039;52.108;19.942;2023-04-09T13:31:03;101394.27;;;13.42;61.06
60920;BME280;59039;52.108;19.942;2023-04-09T13:33:28;101393.73;;;13.41;60.28
60920;BME280;59039;52.108;19.942;2023-04-09T13:35:53;101392.23;;;13.41;60.64
60920;BME280;59039;52.108;19.942;2023-04-09T13:38:31;101390.90;;;13.41;61.08
60920;BME280;59039;52.108;19.942;2023-04-09T13:41:07;101391.47;;;13.41;60.69
60920;BME280;59039;52.108;19.942;2023-04-09T13:43:38;101387.83;;;13.41;61.08
60920;BME280;59039;52.108;19.942;2023-04-09T13:48:44;101392.04;;;13.43;61.23
60920;BME280;59039;52.108;19.942;2023-04-09T13:51:10;101387.46;;;13.43;61.57
60920;BME280;59039;52.108;19.942;2023-04-09T13:53:35;101383.40;;;13.44;61.73